Time;durP1;ratioP1;P1;durP2;ratioP2;P2;SDS_P1;SDS_P2;PMS_P1;PMS_P2;Temp;Humidity;BMP_temperature;BMP_pressure;BME280_temperature;BME280_humidity;BME280_pressure;Samples;Min_cycle;Max_cycle;Signal;HPM_P1;HPM_P2
2021/01/09 00:00:10;;;;;;;3.5;2.8;;;;;;;-1.97;75.46094;937.4219;;;;
2021/01/09 00:02:35;;;;;;;4;2.5;;;;;;;-1.81;74.97754;937.3984;;;;
2021/01/09 00:05:01;;;;;;;2.8;2.2;;;;;;;-1.69;74.93359;937.399;;;;
2021/01/09 00:07:26;;;;;;;2.9;2.3;;;;;;;-1.75;74.50293;937.4467;;;;
2021/01/09 00:09:51;;;;;;;2.8;2.1;;;;;;;-1.86;74.53906;937.3907;;;;
2021/01/09 00:12:16;;;;;;;1.5;1.3;;;;;;;-1.95;74.68945;937.4997;;;;
2021/01/09 00:14:41;;;;;;;2.5;1.8;;;;;;;-1.99;74.57031;937.5589;;;;
2021/01/09 00:17:06;;;;;;;6.4;2.7;;;;;;;-2.1;74.9502;937.5925;;;;
2021/01/09 00:19:31;;;;;;;2.4;1.7;;;;;;;-2;74.40234;937.6071;;;;
2021/01/09 00:21:56;;;;;;;9.1;2.8;;;;;;;-2;73.82617;937.5159;;;;
2021/01/09 00:24:21;;;;;;;3.3;2.1;;;;;;;-2.01;73.28125;937.57;;;;
2021/01/09 00:26:46;;;;;;;6.5;2.8;;;;;;;-2.11;72.69824;937.5189;;;;
2021/01/09 00:29:11;;;;;;;11.6;3.5;;;;;;;-2.3;73.10742;937.5039;;;;
2021/01/09 00:31:37;;;;;;;3.9;2.6;;;;;;;-2.32;73.10547;937.582;;;;
2021/01/09 00:34:02;;;;;;;1.3;1.2;;;;;;;-2.28;73.05664;937.4794;;;;
2021/01/09 00:36:27;;;;;;;2.3;1.6;;;;;;;-2.3;73.61719;937.6124;;;;
2021/01/09 00:38:52;;;;;;;3.6;1.7;;;;;;;-2.37;73.25;937.5795;;;;
2021/01/09 00:41:17;;;;;;;2.9;1.5;;;;;;;-2.45;73.27051;937.6551;;;;
2021/01/09 00:43:42;;;;;;;3.7;1.6;;;;;;;-2.51;73.53809;937.6465;;;;
2021/01/09 00:46:07;;;;;;;4.8;2;;;;;;;-2.45;73.70215;937.6498;;;;
2021/01/09 00:48:32;;;;;;;1.4;1.2;;;;;;;-2.38;73.07227;937.6569;;;;
2021/01/09 00:50:58;;;;;;;5.8;1.8;;;;;;;-2.29;72.41211;937.6417;;;;
2021/01/09 00:53:23;;;;;;;1.4;1.3;;;;;;;-2.28;71.81543;937.6308;;;;
2021/01/09 00:55:48;;;;;;;4.2;2.4;;;;;;;-2.23;71.53711;937.6077;;;;
2021/01/09 00:58:13;;;;;;;2.2;1.7;;;;;;;-2.2;72.21582;937.6225;;;;
2021/01/09 01:00:38;;;;;;;4.6;2.5;;;;;;;-2.32;71.44336;937.6028;;;;
2021/01/09 01:03:03;;;;;;;1.7;1.6;;;;;;;-2.27;71.45117;937.6584;;;;
2021/01/09 01:05:28;;;;;;;4.4;2.5;;;;;;;-2.24;71.62402;937.6962;;;;
2021/01/09 01:07:53;;;;;;;3.1;2.1;;;;;;;-2.27;70.74219;937.6703;;;;
2021/01/09 01:10:19;;;;;;;6.2;1.6;;;;;;;-2.31;70.34863;937.7248;;;;
2021/01/09 01:12:44;;;;;;;2.7;1.9;;;;;;;-2.51;69.5166;937.7124;;;;
2021/01/09 01:15:09;;;;;;;2.4;1.5;;;;;;;-2.42;69.9209;937.8036;;;;
2021/01/09 01:17:34;;;;;;;3.1;1.9;;;;;;;-2.33;70.01172;937.7941;;;;
2021/01/09 01:19:59;;;;;;;3.5;2.5;;;;;;;-2.27;69.60156;937.8081;;;;
2021/01/09 01:22:24;;;;;;;3.2;1.8;;;;;;;-2.46;69.14941;937.743;;;;
2021/01/09 01:24:49;;;;;;;2.8;1.9;;;;;;;-2.68;69.63184;937.7297;;;;
2021/01/09 01:27:15;;;;;;;4.2;1.7;;;;;;;-2.87;70.41895;937.78;;;;
2021/01/09 01:29:40;;;;;;;2.6;1.8;;;;;;;-2.83;70.53711;937.7521;;;;
2021/01/09 01:32:05;;;;;;;3.1;1.5;;;;;;;-2.78;70.30176;937.7014;;;;
2021/01/09 01:34:30;;;;;;;4.9;1.5;;;;;;;-2.58;70.30273;937.8063;;;;
2021/01/09 01:36:55;;;;;;;2.8;1.7;;;;;;;-2.45;69.87012;937.6896;;;;
2021/01/09 01:39:20;;;;;;;2.8;1.8;;;;;;;-2.42;69.23438;937.7849;;;;
2021/01/09 01:41:46;;;;;;;1.4;1.3;;;;;;;-2.64;67.27246;937.7214;;;;
2021/01/09 01:44:11;;;;;;;1.1;1;;;;;;;-2.9;67.80566;937.8028;;;;
2021/01/09 01:46:36;;;;;;;3.3;1.9;;;;;;;-2.96;67.9834;937.7986;;;;
2021/01/09 01:49:01;;;;;;;1.9;1.3;;;;;;;-3.01;68.15137;937.7664;;;;
2021/01/09 01:51:26;;;;;;;2.1;1.5;;;;;;;-3.11;68.32324;937.8197;;;;
2021/01/09 01:53:52;;;;;;;4;1.5;;;;;;;-3.24;68.4668;937.7897;;;;
2021/01/09 01:56:16;;;;;;;1.4;1.2;;;;;;;-3.21;68.50586;937.7342;;;;
2021/01/09 01:58:41;;;;;;;2.1;1.2;;;;;;;-3.35;68.15234;937.798;;;;
2021/01/09 02:01:06;;;;;;;2;1.3;;;;;;;-3.23;68.2373;937.7704;;;;
2021/01/09 02:03:31;;;;;;;1.4;0.9;;;;;;;-3.15;68.08398;937.6559;;;;
2021/01/09 02:05:56;;;;;;;1.7;1.3;;;;;;;-3.2;68.17578;937.7551;;;;
2021/01/09 02:08:21;;;;;;;3.9;1.4;;;;;;;-3.3;68.49121;937.788;;;;
2021/01/09 02:10:46;;;;;;;2.9;1.2;;;;;;;-3.31;69.50781;937.7743;;;;
2021/01/09 02:13:11;;;;;;;4.1;1.7;;;;;;;-3.39;70.25488;937.7006;;;;
2021/01/09 02:15:36;;;;;;;1.1;0.9;;;;;;;-3.51;70.35742;937.685;;;;
2021/01/09 02:18:02;;;;;;;6.3;1.9;;;;;;;-3.48;70.7041;937.6625;;;;
2021/01/09 02:20:27;;;;;;;1.4;1;;;;;;;-3.54;70.77246;937.6871;;;;
2021/01/09 02:22:54;;;;;;;4.2;1.5;;;;;;;-3.67;70.87109;937.6965;;;;
2021/01/09 02:25:17;;;;;;;1.9;1.7;;;;;;;-3.71;70.94238;937.6552;;;;
2021/01/09 02:27:42;;;;;;;1.6;1.2;;;;;;;-3.71;71.05273;937.5488;;;;
2021/01/09 02:30:07;;;;;;;2;0.6;;;;;;;-3.83;71.19824;937.6348;;;;
2021/01/09 02:32:32;;;;;;;2.5;1.2;;;;;;;-3.98;71.97559;937.5887;;;;
2021/01/09 02:34:57;;;;;;;1.9;1.4;;;;;;;-4.06;72.13965;937.6116;;;;
2021/01/09 02:37:23;;;;;;;1.1;1;;;;;;;-4.12;72.44922;937.5989;;;;
2021/01/09 02:39:48;;;;;;;3.3;1.5;;;;;;;-4.01;72.23633;937.5921;;;;
2021/01/09 02:42:13;;;;;;;5;1.4;;;;;;;-4.08;71.67188;937.6434;;;;
2021/01/09 02:44:38;;;;;;;4;2.2;;;;;;;-4.04;71.53613;937.6571;;;;
2021/01/09 02:47:03;;;;;;;3.2;1.9;;;;;;;-3.94;71.16699;937.6462;;;;
2021/01/09 02:49:28;;;;;;;2;1.1;;;;;;;-3.94;70.50488;937.6127;;;;
2021/01/09 02:51:53;;;;;;;1.7;1.5;;;;;;;-3.96;70.53516;937.6746;;;;
2021/01/09 02:54:18;;;;;;;6.6;2;;;;;;;-3.87;71.07813;937.7383;;;;
2021/01/09 02:56:44;;;;;;;2.5;1.1;;;;;;;-3.85;71.25977;937.704;;;;
2021/01/09 02:59:09;;;;;;;2.4;0.9;;;;;;;-3.83;70.82129;937.6319;;;;
2021/01/09 03:01:34;;;;;;;3.9;1.5;;;;;;;-4.02;71.16406;937.6331;;;;
2021/01/09 03:03:59;;;;;;;1.1;1;;;;;;;-4.15;71.39844;937.6489;;;;
2021/01/09 03:06:24;;;;;;;1.4;1.1;;;;;;;-4.28;71.36523;937.6002;;;;
2021/01/09 03:08:49;;;;;;;1.6;1;;;;;;;-4.44;71.33594;937.623;;;;
2021/01/09 03:11:14;;;;;;;1.2;0.8;;;;;;;-4.53;71.33301;937.5823;;;;
2021/01/09 03:13:39;;;;;;;0.8;0.8;;;;;;;-4.6;71.61719;937.7018;;;;
2021/01/09 03:16:04;;;;;;;0.9;0.9;;;;;;;-4.63;72.03125;937.7393;;;;
2021/01/09 03:18:30;;;;;;;1.1;0.9;;;;;;;-4.65;72.18164;937.7039;;;;
2021/01/09 03:20:55;;;;;;;1.2;1;;;;;;;-4.56;71.96582;937.7964;;;;
2021/01/09 03:23:20;;;;;;;1.9;1.2;;;;;;;-4.55;71.42773;937.8013;;;;
2021/01/09 03:25:45;;;;;;;0.6;0.6;;;;;;;-4.47;71.45215;937.7322;;;;
2021/01/09 03:28:10;;;;;;;1.9;1.6;;;;;;;-4.49;70.78809;937.8398;;;;
2021/01/09 03:30:35;;;;;;;1.3;1.2;;;;;;;-4.4;70.75977;937.8496;;;;
2021/01/09 03:33:01;;;;;;;1.8;1.5;;;;;;;-4.24;70.25586;937.8188;;;;
2021/01/09 03:35:26;;;;;;;1.8;1.3;;;;;;;-4.15;70.48242;937.7811;;;;
2021/01/09 03:37:51;;;;;;;3.4;2;;;;;;;-4.31;70.97363;937.8119;;;;
2021/01/09 03:40:16;;;;;;;2.8;1.4;;;;;;;-4.28;70.9873;937.7809;;;;
2021/01/09 03:42:41;;;;;;;2;1;;;;;;;-4.14;69.96387;937.7599;;;;
2021/01/09 03:45:06;;;;;;;3.4;2;;;;;;;-4.09;69.28809;937.764;;;;
2021/01/09 03:47:31;;;;;;;2;1.2;;;;;;;-4.15;69.55469;937.7651;;;;
2021/01/09 03:49:57;;;;;;;3.8;1.6;;;;;;;-4.2;70.05469;937.6707;;;;
2021/01/09 03:52:22;;;;;;;0.6;0.6;;;;;;;-4.32;70.50684;937.796;;;;
2021/01/09 03:54:47;;;;;;;1.5;0.8;;;;;;;-4.32;70.25391;937.7648;;;;
2021/01/09 03:57:12;;;;;;;1.2;0.6;;;;;;;-4.25;70.08789;937.6255;;;;
2021/01/09 03:59:37;;;;;;;1;0.9;;;;;;;-4.3;70.29004;937.7305;;;;
2021/01/09 04:02:30;;;;;;;0.9;0.9;;;;;;;-4.27;70.47266;937.7448;;;;
2021/01/09 04:04:55;;;;;;;9.6;1.1;;;;;;;-4.28;71.53906;937.7668;;;;
2021/01/09 04:07:20;;;;;;;1.1;1;;;;;;;-4.31;71.14844;937.6912;;;;
2021/01/09 04:09:45;;;;;;;0.7;0.7;;;;;;;-4.31;70.81738;937.699;;;;
2021/01/09 04:12:10;;;;;;;0.8;0.8;;;;;;;-4.57;71.33496;937.782;;;;
2021/01/09 04:14:35;;;;;;;2;1.1;;;;;;;-4.81;71.91016;937.7924;;;;
2021/01/09 04:17:00;;;;;;;0.6;0.6;;;;;;;-4.88;72.24023;937.8092;;;;
2021/01/09 04:19:25;;;;;;;1.2;0.8;;;;;;;-5.05;72.45313;937.8219;;;;
2021/01/09 04:21:51;;;;;;;0.8;0.8;;;;;;;-5.17;72.71875;937.8489;;;;
2021/01/09 04:24:15;;;;;;;1.7;0.8;;;;;;;-5.15;72.83008;937.8691;;;;
2021/01/09 04:26:41;;;;;;;1.2;1.1;;;;;;;-5.18;72.96973;937.8606;;;;
2021/01/09 04:29:06;;;;;;;1.6;1.4;;;;;;;-5.18;73.33301;937.8613;;;;
2021/01/09 04:31:31;;;;;;;1.1;0.8;;;;;;;-5.23;73.29004;937.9283;;;;
2021/01/09 04:33:56;;;;;;;4.9;1.7;;;;;;;-5.3;73.91699;937.9618;;;;
2021/01/09 04:36:21;;;;;;;6.5;1;;;;;;;-5.28;73.92969;937.8681;;;;
2021/01/09 04:38:46;;;;;;;1.1;0.9;;;;;;;-5.44;74.03516;937.9144;;;;
2021/01/09 04:41:11;;;;;;;1.9;1.4;;;;;;;-5.49;74.13672;937.8864;;;;
2021/01/09 04:43:36;;;;;;;1.3;0.6;;;;;;;-5.57;74.3623;937.9126;;;;
2021/01/09 04:46:01;;;;;;;7.7;1.1;;;;;;;-5.89;76.01758;937.9756;;;;
2021/01/09 04:48:27;;;;;;;1.6;0.8;;;;;;;-5.83;76.14063;937.9821;;;;
2021/01/09 04:50:52;;;;;;;1.3;1;;;;;;;-5.71;76.09668;938.0201;;;;
2021/01/09 04:53:17;;;;;;;2;0.8;;;;;;;-5.64;75.95605;937.9579;;;;
2021/01/09 04:55:42;;;;;;;1.2;0.8;;;;;;;-5.44;75.39844;937.9556;;;;
2021/01/09 04:58:07;;;;;;;1.4;1.3;;;;;;;-5.3;74.42383;937.9991;;;;
2021/01/09 05:00:32;;;;;;;2;1.4;;;;;;;-5.21;74.19727;938.0017;;;;
2021/01/09 05:02:57;;;;;;;3.5;1.5;;;;;;;-5.26;74.14355;937.9617;;;;
2021/01/09 05:05:22;;;;;;;2.1;0.9;;;;;;;-5.38;74.7168;937.9681;;;;
2021/01/09 05:07:48;;;;;;;10.7;5.5;;;;;;;-5.38;74.78125;937.9048;;;;
2021/01/09 05:10:13;;;;;;;50.3;26.2;;;;;;;-5.45;74.80273;938.0232;;;;
2021/01/09 05:12:38;;;;;;;60.7;29.2;;;;;;;-5.4;74.51367;938.0338;;;;
2021/01/09 05:15:03;;;;;;;2.3;1.1;;;;;;;-5.66;74.51074;938.0931;;;;
2021/01/09 05:17:28;;;;;;;0.8;0.8;;;;;;;-5.82;74.91211;938.1539;;;;
2021/01/09 05:19:53;;;;;;;2.2;1.4;;;;;;;-5.88;75.38379;938.1434;;;;
2021/01/09 05:22:18;;;;;;;2.5;1;;;;;;;-5.87;75.53906;938.2159;;;;
2021/01/09 05:24:44;;;;;;;2.4;1.3;;;;;;;-6;76.02148;938.2033;;;;
2021/01/09 05:27:09;;;;;;;2;1.2;;;;;;;-6.08;76.39063;938.1886;;;;
2021/01/09 05:29:34;;;;;;;2.6;1.2;;;;;;;-6.17;76.74805;938.131;;;;
2021/01/09 05:31:59;;;;;;;1.9;1.4;;;;;;;-6.07;76.58984;938.2342;;;;
2021/01/09 05:34:24;;;;;;;1.1;0.9;;;;;;;-6.17;77.43945;938.2383;;;;
2021/01/09 05:36:49;;;;;;;1.2;0.9;;;;;;;-6.08;77.20508;938.1926;;;;
2021/01/09 05:39:14;;;;;;;1.4;1.2;;;;;;;-5.96;76.75488;938.282;;;;
2021/01/09 05:41:39;;;;;;;1;1;;;;;;;-6.04;76.49609;938.2958;;;;
2021/01/09 05:44:04;;;;;;;3.1;1.8;;;;;;;-6.09;76.65234;938.363;;;;
2021/01/09 05:46:29;;;;;;;1.4;1.2;;;;;;;-6.05;76.39746;938.3783;;;;
2021/01/09 05:48:55;;;;;;;0.9;0.9;;;;;;;-6.1;76.19043;938.4274;;;;
2021/01/09 05:51:20;;;;;;;1.3;1.1;;;;;;;-6.13;76.30566;938.4169;;;;
2021/01/09 05:53:45;;;;;;;3.7;1.8;;;;;;;-5.99;75.7373;938.4154;;;;
2021/01/09 05:56:10;;;;;;;0.8;0.7;;;;;;;-6.09;75.8291;938.4291;;;;
2021/01/09 05:58:35;;;;;;;0.6;0.6;;;;;;;-6.08;75.94238;938.3176;;;;
2021/01/09 06:01:00;;;;;;;0.9;0.6;;;;;;;-6.02;75.33594;938.4285;;;;
2021/01/09 06:03:25;;;;;;;1.1;0.8;;;;;;;-6.07;75.15332;938.4547;;;;
2021/01/09 06:05:51;;;;;;;2.8;1.2;;;;;;;-6.05;75.06934;938.4092;;;;
2021/01/09 06:08:16;;;;;;;1.1;0.8;;;;;;;-6.05;75.06934;938.5208;;;;
2021/01/09 06:10:41;;;;;;;0.4;0.4;;;;;;;-6.14;75.05078;938.4518;;;;
2021/01/09 06:13:06;;;;;;;1.3;0.7;;;;;;;-6.18;75.16504;938.5784;;;;
2021/01/09 06:15:31;;;;;;;1.2;0.8;;;;;;;-6.2;75.35938;938.5736;;;;
2021/01/09 06:17:56;;;;;;;1.3;1.2;;;;;;;-6.31;75.76758;938.5775;;;;
2021/01/09 06:20:21;;;;;;;6.9;1.6;;;;;;;-6.36;76.01172;938.598;;;;
2021/01/09 06:22:46;;;;;;;0.9;0.7;;;;;;;-6.42;76.07715;938.5118;;;;
2021/01/09 06:25:11;;;;;;;1.7;1.2;;;;;;;-6.55;76.73242;938.5683;;;;
2021/01/09 06:27:36;;;;;;;1.3;1.2;;;;;;;-6.48;76.70215;938.5539;;;;
2021/01/09 06:30:02;;;;;;;0.8;0.8;;;;;;;-6.38;76.50098;938.6525;;;;
2021/01/09 06:32:27;;;;;;;3.3;1.1;;;;;;;-6.32;76.32422;938.6037;;;;
2021/01/09 06:34:52;;;;;;;1.4;1.2;;;;;;;-6.41;76.05664;938.6234;;;;
2021/01/09 06:37:17;;;;;;;2.7;1.4;;;;;;;-6.43;76.0625;938.6252;;;;
2021/01/09 06:39:42;;;;;;;2.2;1.8;;;;;;;-6.46;76.2334;938.5842;;;;
2021/01/09 06:42:07;;;;;;;3;1.5;;;;;;;-6.44;76.01953;938.6269;;;;
2021/01/09 06:44:32;;;;;;;2.9;1.9;;;;;;;-6.39;75.87402;938.6826;;;;
2021/01/09 06:46:57;;;;;;;1.5;1.2;;;;;;;-6.45;75.75293;938.6459;;;;
2021/01/09 06:49:23;;;;;;;1.4;1.1;;;;;;;-6.6;75.91113;938.6334;;;;
2021/01/09 06:51:48;;;;;;;3.9;1.9;;;;;;;-6.57;76.01465;938.6361;;;;
2021/01/09 06:54:13;;;;;;;1.1;1;;;;;;;-6.67;76.05078;938.5721;;;;
2021/01/09 06:56:38;;;;;;;1.8;1.6;;;;;;;-6.71;76.1875;938.6139;;;;
2021/01/09 06:59:03;;;;;;;6.2;2.5;;;;;;;-6.71;76.19824;938.5767;;;;
2021/01/09 07:01:28;;;;;;;11.6;5.9;;;;;;;-6.72;76.1543;938.7215;;;;
2021/01/09 07:03:53;;;;;;;12.8;7.5;;;;;;;-6.72;75.99023;938.7169;;;;
2021/01/09 07:06:18;;;;;;;10;4.6;;;;;;;-6.77;76.02344;938.6895;;;;
2021/01/09 07:08:43;;;;;;;6.9;3.9;;;;;;;-6.82;76.04688;938.7227;;;;
2021/01/09 07:11:08;;;;;;;9.5;4;;;;;;;-6.59;75.82617;938.6917;;;;
2021/01/09 07:13:34;;;;;;;8.5;2.8;;;;;;;-6.51;75.0625;938.7457;;;;
2021/01/09 07:15:59;;;;;;;4.3;2.3;;;;;;;-6.5;74.72266;938.7209;;;;
2021/01/09 07:18:25;;;;;;;6.3;3.2;;;;;;;-6.59;74.6748;938.7218;;;;
2021/01/09 07:20:50;;;;;;;4.3;2.3;;;;;;;-6.54;74.58496;938.7653;;;;
2021/01/09 07:23:15;;;;;;;4.8;3.1;;;;;;;-6.59;74.63086;938.8187;;;;
2021/01/09 07:25:41;;;;;;;1.6;1.4;;;;;;;-6.72;75.47461;938.7825;;;;
2021/01/09 07:28:06;;;;;;;2.6;1.9;;;;;;;-6.9;75.80176;938.7903;;;;
2021/01/09 07:30:31;;;;;;;0.7;0.7;;;;;;;-6.98;76.12695;938.8369;;;;
2021/01/09 07:32:56;;;;;;;1.6;1.3;;;;;;;-7.05;76.75;938.7039;;;;
2021/01/09 07:35:21;;;;;;;4.9;3.3;;;;;;;-6.86;76.26855;938.8459;;;;
2021/01/09 07:37:46;;;;;;;4.4;3;;;;;;;-6.83;76.16699;938.9059;;;;
2021/01/09 07:40:11;;;;;;;2.1;1.9;;;;;;;-6.74;75.80957;938.8652;;;;
2021/01/09 07:42:36;;;;;;;2;1.4;;;;;;;-6.73;75.45898;938.916;;;;
2021/01/09 07:45:02;;;;;;;2.8;2.2;;;;;;;-6.76;75.37891;938.8591;;;;
2021/01/09 07:47:27;;;;;;;10.2;5;;;;;;;-6.72;75.49609;938.8567;;;;
2021/01/09 07:49:52;;;;;;;1.3;1.2;;;;;;;-6.62;75.22949;938.8719;;;;
2021/01/09 07:52:17;;;;;;;3.6;1.8;;;;;;;-6.42;75.11035;939.005;;;;
2021/01/09 07:54:43;;;;;;;3.5;2.7;;;;;;;-6.06;73.47559;939.0536;;;;
2021/01/09 07:57:07;;;;;;;4.2;2.3;;;;;;;-5.61;72.21094;939.0433;;;;
2021/01/09 07:59:32;;;;;;;4;1.9;;;;;;;-5.37;70.5498;939.082;;;;
2021/01/09 08:01:57;;;;;;;3.4;2.4;;;;;;;-5.23;69.93555;939.1296;;;;
2021/01/09 08:04:22;;;;;;;16.4;6.6;;;;;;;-5.01;69.38965;939.1877;;;;
2021/01/09 08:06:48;;;;;;;9.4;1.5;;;;;;;-4.71;67.51172;938.9988;;;;
2021/01/09 08:09:13;;;;;;;2.5;1.9;;;;;;;-4.4;66.66992;939.0976;;;;
2021/01/09 08:11:38;;;;;;;2.4;1.4;;;;;;;-4.13;64.71484;939.1083;;;;
2021/01/09 08:14:03;;;;;;;4.4;3.5;;;;;;;-3.87;64.44824;939.1146;;;;
2021/01/09 08:16:28;;;;;;;6.9;4.9;;;;;;;-3.52;62.96387;939.1408;;;;
2021/01/09 08:18:53;;;;;;;12.1;4.3;;;;;;;-3.11;61.84473;939.0721;;;;
2021/01/09 08:21:18;;;;;;;4.5;3.1;;;;;;;-2.7;59.66895;939.1797;;;;
2021/01/09 08:23:44;;;;;;;4.6;2.5;;;;;;;-2.16;57.49512;939.1935;;;;
2021/01/09 08:26:09;;;;;;;4.5;2.8;;;;;;;-1.85;56.2959;939.1217;;;;
2021/01/09 08:28:34;;;;;;;16.7;5.8;;;;;;;-1.24;55.17871;939.0848;;;;
2021/01/09 08:30:59;;;;;;;10.9;4;;;;;;;-1.33;54.77734;938.9955;;;;
2021/01/09 08:33:24;;;;;;;2.6;2.2;;;;;;;-1.86;55.86133;939.1392;;;;
2021/01/09 08:35:49;;;;;;;7.4;3.2;;;;;;;-0.63;53.03418;938.9927;;;;
2021/01/09 08:38:14;;;;;;;5.8;2.6;;;;;;;-0.63;51.36523;939.0583;;;;
2021/01/09 08:40:42;;;;;;;2.4;1.8;;;;;;;-0.86;51.4707;938.9313;;;;
2021/01/09 08:43:07;;;;;;;2.1;1.8;;;;;;;-1.03;51.38281;939.03;;;;
2021/01/09 08:45:32;;;;;;;3.5;1.9;;;;;;;-1.29;52.95117;939.0186;;;;
2021/01/09 08:47:57;;;;;;;8.5;3.5;;;;;;;-0.35;51.16602;939.0758;;;;
2021/01/09 08:50:22;;;;;;;4.1;2.3;;;;;;;0.24;49.27539;938.9579;;;;
2021/01/09 08:52:47;;;;;;;2.5;1.4;;;;;;;0.67;47.85156;938.9828;;;;
2021/01/09 08:55:13;;;;;;;5.6;2;;;;;;;-1.5;50.64941;939.0641;;;;
2021/01/09 08:57:38;;;;;;;5.1;2.2;;;;;;;-2.54;54.98535;939.0154;;;;
2021/01/09 09:00:03;;;;;;;2.7;1.7;;;;;;;-3.11;57.64258;939.0207;;;;
2021/01/09 09:02:28;;;;;;;2.9;1.7;;;;;;;-3.59;59.71875;939.0097;;;;
2021/01/09 09:04:53;;;;;;;1.9;1;;;;;;;-4.09;61.35742;939.043;;;;
2021/01/09 09:07:18;;;;;;;3.3;1.9;;;;;;;-4.32;62.48047;939.0672;;;;
2021/01/09 09:09:43;;;;;;;3.2;2;;;;;;;-4.62;63.43848;939.0176;;;;
2021/01/09 09:12:13;;;;;;;2;1.5;;;;;;;-4.6;64.48828;939.0255;;;;
2021/01/09 09:14:37;;;;;;;1.3;1.1;;;;;;;-4.46;63.9375;939.0062;;;;
2021/01/09 09:17:03;;;;;;;2.2;1.3;;;;;;;-4.36;63.78613;938.9367;;;;
2021/01/09 09:19:27;;;;;;;1.2;1.1;;;;;;;-4.52;64.47852;938.9944;;;;
2021/01/09 09:21:52;;;;;;;1.4;1.1;;;;;;;-4.56;65.14551;939.0415;;;;
2021/01/09 09:24:18;;;;;;;4.6;1.4;;;;;;;-4.7;65.77246;939.1122;;;;
2021/01/09 09:26:43;;;;;;;1.3;1.2;;;;;;;-4.66;66.55078;939.0255;;;;
2021/01/09 09:29:08;;;;;;;1;1;;;;;;;-4.39;66.96777;939.1072;;;;
2021/01/09 09:31:33;;;;;;;2.4;1.6;;;;;;;-4.52;66.42871;939.1281;;;;
2021/01/09 09:33:58;;;;;;;2.5;1.4;;;;;;;-4.53;66.87012;939.1066;;;;
2021/01/09 09:36:23;;;;;;;9.8;1.8;;;;;;;-4.48;66.88867;939.0478;;;;
2021/01/09 09:38:48;;;;;;;3.2;1.4;;;;;;;-4.49;66.97363;939.063;;;;
2021/01/09 09:41:14;;;;;;;4.4;3;;;;;;;-4.37;66.74023;939.098;;;;
2021/01/09 09:43:39;;;;;;;2;1.1;;;;;;;-4.42;66.00391;939.0272;;;;
2021/01/09 09:46:05;;;;;;;9.9;2.6;;;;;;;-4.35;69.11328;939.057;;;;
2021/01/09 09:48:30;;;;;;;11.2;5.8;;;;;;;-4.13;67.33984;938.9846;;;;
2021/01/09 09:50:55;;;;;;;12.5;5.3;;;;;;;-4.01;66.8418;939.058;;;;
2021/01/09 09:53:20;;;;;;;4.3;2.6;;;;;;;-4.04;65.22559;939.0747;;;;
2021/01/09 09:55:45;;;;;;;14.1;2.2;;;;;;;-4.02;65.68066;939.0793;;;;
2021/01/09 09:58:10;;;;;;;1.7;1.6;;;;;;;-3.86;64.93359;938.9515;;;;
2021/01/09 10:00:35;;;;;;;4;3.1;;;;;;;-3.82;62.17969;938.9563;;;;
2021/01/09 10:03:00;;;;;;;2.8;2.3;;;;;;;-3.88;61.96191;938.9761;;;;
2021/01/09 10:05:25;;;;;;;4.9;2.5;;;;;;;-3.74;62.64551;938.9192;;;;
2021/01/09 10:07:50;;;;;;;15.5;2.9;;;;;;;-3.72;62.27344;938.9562;;;;
2021/01/09 10:10:15;;;;;;;9.3;4;;;;;;;-3.53;62.38965;938.86;;;;
2021/01/09 10:12:41;;;;;;;5.5;3.6;;;;;;;-3.24;62.54297;938.8295;;;;
2021/01/09 10:15:06;;;;;;;10.6;3.4;;;;;;;-3.08;61.73828;938.7842;;;;
2021/01/09 10:17:31;;;;;;;4.4;2.8;;;;;;;-3.18;62.51953;938.7756;;;;
2021/01/09 10:19:56;;;;;;;6.3;1.5;;;;;;;-3.03;62.06543;938.7986;;;;
2021/01/09 10:22:21;;;;;;;4.8;3.6;;;;;;;-3.2;62.91309;938.7993;;;;
2021/01/09 10:24:46;;;;;;;9.6;4.6;;;;;;;-3.2;63.14551;938.7551;;;;
2021/01/09 10:27:11;;;;;;;6.2;3.2;;;;;;;-2.97;62.58398;938.7358;;;;
2021/01/09 10:29:36;;;;;;;7.2;4.8;;;;;;;-2.91;61.73047;938.7083;;;;
2021/01/09 10:32:02;;;;;;;11;6.7;;;;;;;-2.91;61.31934;938.613;;;;
2021/01/09 10:34:27;;;;;;;17.7;6;;;;;;;-2.63;61.37207;938.6147;;;;
2021/01/09 10:36:52;;;;;;;8.2;4.6;;;;;;;-2.58;61.0791;938.6124;;;;
2021/01/09 10:39:17;;;;;;;8.9;5.1;;;;;;;-2.6;59.68262;938.5689;;;;
2021/01/09 10:41:42;;;;;;;20.3;6.1;;;;;;;-2.38;59.83594;938.6217;;;;
2021/01/09 10:44:07;;;;;;;5.2;3.9;;;;;;;-2.3;58.92676;938.587;;;;
2021/01/09 10:46:33;;;;;;;7.9;4.7;;;;;;;-2.36;58.30957;938.5524;;;;
2021/01/09 10:48:57;;;;;;;4.5;3;;;;;;;-2.38;57.62012;938.5092;;;;
2021/01/09 10:51:22;;;;;;;12.1;3.4;;;;;;;-2.27;58.73047;938.5028;;;;
2021/01/09 10:53:47;;;;;;;6.1;3.7;;;;;;;-2;58.03809;938.4817;;;;
2021/01/09 10:56:15;;;;;;;8;2.8;;;;;;;-1.75;56.70801;938.4291;;;;
2021/01/09 10:58:40;;;;;;;9.2;3.8;;;;;;;-1.47;56.76758;938.4727;;;;
2021/01/09 11:01:05;;;;;;;12.3;4.5;;;;;;;-1.15;56.61133;938.4219;;;;
2021/01/09 11:03:31;;;;;;;4;2;;;;;;;-0.94;54.97363;938.3575;;;;
2021/01/09 11:05:56;;;;;;;9.6;3;;;;;;;-0.79;54.23633;938.392;;;;
2021/01/09 11:08:21;;;;;;;8.5;3.6;;;;;;;-0.54;54.16895;938.3339;;;;
2021/01/09 11:10:46;;;;;;;12.1;3.8;;;;;;;-0.39;53.05176;938.305;;;;
2021/01/09 11:13:11;;;;;;;8.1;4.1;;;;;;;-0.3;52.6416;938.3376;;;;
2021/01/09 11:15:36;;;;;;;7.2;3.9;;;;;;;-0.09;52.88965;938.3214;;;;
2021/01/09 11:18:01;;;;;;;9.2;3.2;;;;;;;0.04;51.15723;938.3228;;;;
2021/01/09 11:20:26;;;;;;;8.6;3.5;;;;;;;-0.05;51.81445;938.3158;;;;
2021/01/09 11:22:51;;;;;;;4.5;3.4;;;;;;;0.01;51.13184;938.2799;;;;
2021/01/09 11:25:17;;;;;;;4.7;2.6;;;;;;;0.2;51.63379;938.2369;;;;
2021/01/09 11:27:42;;;;;;;5.3;2.8;;;;;;;0.34;51.99707;938.1917;;;;
2021/01/09 11:30:07;;;;;;;6.4;3.4;;;;;;;0.55;51.46387;938.1961;;;;
2021/01/09 11:32:32;;;;;;;8.8;4.9;;;;;;;0.51;50.92383;938.1459;;;;
2021/01/09 11:34:57;;;;;;;3;2.2;;;;;;;0.53;50.60156;938.1465;;;;
2021/01/09 11:37:22;;;;;;;2.5;1.9;;;;;;;0.6;49.93066;938.1528;;;;
2021/01/09 11:39:55;;;;;;;7;2.7;;;;;;;0.74;49.74609;938.0899;;;;
2021/01/09 11:42:21;;;;;;;9;2.9;;;;;;;0.82;49.93457;938.0162;;;;
2021/01/09 11:44:41;;;;;;;8;2.9;;;;;;;0.81;49.38672;938.0891;;;;
2021/01/09 11:47:07;;;;;;;2.9;2;;;;;;;0.69;48.83691;938.0525;;;;
2021/01/09 11:49:31;;;;;;;3.6;2.2;;;;;;;0.75;49.92676;938.0374;;;;
2021/01/09 11:51:57;;;;;;;2.8;1.7;;;;;;;0.8;49.84277;938.0388;;;;
2021/01/09 11:54:26;;;;;;;1.2;1.1;;;;;;;0.33;50.71289;937.9704;;;;
2021/01/09 11:56:50;;;;;;;2.9;1.5;;;;;;;0.57;52.11426;938.0146;;;;
2021/01/09 11:59:16;;;;;;;1.7;1.5;;;;;;;0.73;51.01758;937.8459;;;;
2021/01/09 12:01:41;;;;;;;2.2;1.6;;;;;;;0.72;51.42871;938.0122;;;;
2021/01/09 12:04:06;;;;;;;1.6;1.2;;;;;;;0.71;51.47168;937.935;;;;
2021/01/09 12:06:31;;;;;;;1.1;1;;;;;;;0.67;53.22949;937.8933;;;;
2021/01/09 12:08:56;;;;;;;2.3;1.7;;;;;;;0.84;52.48242;937.8873;;;;
2021/01/09 12:11:22;;;;;;;2.6;1.7;;;;;;;0.66;53.16309;937.8947;;;;
2021/01/09 12:13:47;;;;;;;2.7;1.6;;;;;;;0.86;51.72559;937.8766;;;;
2021/01/09 12:16:12;;;;;;;2.9;1.3;;;;;;;0.73;52.8584;937.8585;;;;
2021/01/09 12:18:37;;;;;;;2.8;1.5;;;;;;;0.72;53.4502;937.8708;;;;
2021/01/09 12:21:02;;;;;;;3.7;2.1;;;;;;;0.77;53.71191;937.8361;;;;
2021/01/09 12:23:28;;;;;;;3.2;1.3;;;;;;;0.96;54.21582;937.808;;;;
2021/01/09 12:25:52;;;;;;;1.7;1.4;;;;;;;1.08;54.48828;937.8457;;;;
2021/01/09 12:28:17;;;;;;;3.9;1.8;;;;;;;1.09;55.1709;937.7942;;;;
2021/01/09 12:30:42;;;;;;;1.9;1.4;;;;;;;1.04;57.12988;937.7749;;;;
2021/01/09 12:33:07;;;;;;;2.7;1.5;;;;;;;0.89;58.7959;937.7697;;;;
2021/01/09 12:35:32;;;;;;;3.1;1.9;;;;;;;1;58.37598;937.7145;;;;
2021/01/09 12:37:58;;;;;;;3.1;1.9;;;;;;;1.28;58.13379;937.7156;;;;
2021/01/09 12:40:23;;;;;;;2.8;1.5;;;;;;;1.26;58.39941;937.7339;;;;
2021/01/09 12:42:48;;;;;;;4.2;1.7;;;;;;;1.1;59.30566;937.7494;;;;
2021/01/09 12:45:13;;;;;;;2.8;1.5;;;;;;;1.17;59.27051;937.7791;;;;
2021/01/09 12:47:39;;;;;;;3.3;1.4;;;;;;;1.25;59.13574;937.7592;;;;
2021/01/09 12:50:03;;;;;;;3.6;2;;;;;;;1.16;60.08398;937.7888;;;;
2021/01/09 12:52:29;;;;;;;2.7;1.5;;;;;;;1.39;59.36719;937.5972;;;;
2021/01/09 12:54:54;;;;;;;2.6;1.5;;;;;;;1.31;58.83203;937.616;;;;
2021/01/09 12:57:19;;;;;;;2.8;1.4;;;;;;;1.26;59.22656;937.642;;;;
2021/01/09 12:59:44;;;;;;;3.8;1.6;;;;;;;1.52;58.88281;937.6588;;;;
2021/01/09 13:02:09;;;;;;;4.2;1.4;;;;;;;1.57;58.94531;937.6802;;;;
2021/01/09 13:04:35;;;;;;;1.8;1.3;;;;;;;1.74;57.96191;937.7213;;;;
2021/01/09 13:07:01;;;;;;;3.4;1.6;;;;;;;1.47;58.46191;937.7083;;;;
2021/01/09 13:09:26;;;;;;;4.7;2;;;;;;;1.68;58.68066;937.726;;;;
2021/01/09 13:11:50;;;;;;;4.7;2.1;;;;;;;1.65;58.47559;937.7075;;;;
2021/01/09 13:14:15;;;;;;;3.7;1.7;;;;;;;1.69;58.39258;937.71;;;;
2021/01/09 13:16:40;;;;;;;4.4;1.7;;;;;;;1.77;58.05664;937.6483;;;;
2021/01/09 13:19:06;;;;;;;1.7;1.4;;;;;;;2.02;57.79883;937.6925;;;;
2021/01/09 13:21:31;;;;;;;5.3;2;;;;;;;2.14;57.24512;937.6487;;;;
2021/01/09 13:23:56;;;;;;;3.3;1.6;;;;;;;2.08;57.38281;937.6526;;;;
2021/01/09 13:26:21;;;;;;;3;1.8;;;;;;;2.17;56.86816;937.6687;;;;
2021/01/09 13:28:47;;;;;;;2.9;1.7;;;;;;;2.43;56.44434;937.6544;;;;
2021/01/09 13:31:12;;;;;;;2.7;1.7;;;;;;;2.36;56.17676;937.6561;;;;
2021/01/09 13:33:37;;;;;;;2;1.6;;;;;;;2.56;55.87793;937.6788;;;;
2021/01/09 13:36:02;;;;;;;2.7;1.5;;;;;;;2.49;55.82422;937.6961;;;;
2021/01/09 13:38:27;;;;;;;2.1;1.6;;;;;;;2.87;54.99902;937.673;;;;
2021/01/09 13:40:52;;;;;;;4.2;1.6;;;;;;;3.88;51.71191;937.5862;;;;
2021/01/09 13:43:19;;;;;;;2.8;1.6;;;;;;;4.2;50.65918;937.7158;;;;
2021/01/09 13:45:42;;;;;;;6.6;1.7;;;;;;;5.55;47.54688;937.7586;;;;
2021/01/09 13:48:08;;;;;;;3;1.6;;;;;;;7.08;43.65137;937.6601;;;;
2021/01/09 13:50:33;;;;;;;3;1.3;;;;;;;7.74;41.66504;937.6655;;;;
2021/01/09 13:52:58;;;;;;;1.1;1;;;;;;;7.88;41.50977;937.7042;;;;
2021/01/09 13:55:23;;;;;;;1.2;0.7;;;;;;;8.43;40.10742;937.7014;;;;
2021/01/09 13:57:48;;;;;;;1.4;0.7;;;;;;;9.65;38.30664;937.7275;;;;
2021/01/09 14:00:13;;;;;;;2.5;1.2;;;;;;;9.77;37.79297;937.759;;;;
2021/01/09 14:02:38;;;;;;;0.6;0.6;;;;;;;9.43;38.07129;937.7936;;;;
2021/01/09 14:05:03;;;;;;;1.3;0.7;;;;;;;9.64;37.66797;937.791;;;;
2021/01/09 14:07:28;;;;;;;0.7;0.7;;;;;;;9.12;38.20313;937.7531;;;;
2021/01/09 14:09:54;;;;;;;2.4;1.2;;;;;;;7.33;40.82129;937.847;;;;
2021/01/09 14:12:19;;;;;;;2.5;1.3;;;;;;;6.33;43.05469;937.9028;;;;
2021/01/09 14:14:44;;;;;;;1.3;0.9;;;;;;;4.6;47.80273;937.923;;;;